KICL/ICL METAR and TAF weather

Enter ICAO airport designator
Station Type Date Time Source
KICL METAR 2022/05/23 13:55 UTC NOAA

KICL 231355Z AUTO 07003KT 10SM CLR 12/04 A3032 RMK AO2


Station Type Date Time Source
KICL Decoded METAR 2022/05/23 13:55 UTC NOAA

Clarinda, IA, United States (KICL) 40-43N 095-02W
May 23, 2022 - 09:55 AM EDT / 2022.05.23 1355 UTC
Wind: from the ENE (070 degrees) at 3 MPH (3 KT):0
Visibility: 10 mile(s):0
Sky conditions: clear
Temperature: 53 F (12 C)
Dew Point: 39 F (4 C)
Relative Humidity: 57%
Pressure (altimeter): 30.32 in. Hg (1026 hPa)
ob: KICL 231355Z AUTO 07003KT 10SM CLR 12/04 A3032 RMK AO2
cycle: 14

Station Type Date Time Source
KICL TAF UTC NOAA

Error!

Example: see airport list